Time;durP1;ratioP1;P1;durP2;ratioP2;P2;SDS_P1;SDS_P2;PMS_P1;PMS_P2;Temp;Humidity;BMP_temperature;BMP_pressure;BME280_temperature;BME280_humidity;BME280_pressure;Samples;Min_cycle;Max_cycle;Signal;HPM_P1;HPM_P2
2022/10/18 00:02:04;;;;;;;57.47;27.95;;;;;;;8.40;72.48;101762.00;5107991;28;20743;-27
2022/10/18 00:04:31;;;;;;;62.60;29.17;;;;;;;8.40;72.42;101762.81;5108040;28;20032;-26
2022/10/18 00:06:56;;;;;;;84.38;38.22;;;;;;;7.86;73.13;101764.94;5107572;28;20543;-27
2022/10/18 00:09:22;;;;;;;102.63;44.90;;;;;;;7.74;73.75;101763.56;5107741;28;20091;-27
2022/10/18 00:11:47;;;;;;;124.43;49.63;;;;;;;7.51;73.10;101745.53;5108057;28;20539;-27
2022/10/18 00:14:13;;;;;;;117.20;47.50;;;;;;;7.27;74.70;101763.97;5108034;28;20028;-29
2022/10/18 00:16:38;;;;;;;103.80;44.33;;;;;;;7.48;73.44;101737.91;5107522;28;20166;-28
2022/10/18 00:19:04;;;;;;;86.68;40.25;;;;;;;7.82;72.89;101755.63;5107803;28;20034;-27
2022/10/18 00:21:29;;;;;;;72.38;36.42;;;;;;;7.90;72.55;101746.88;5107815;28;20027;-27
2022/10/18 00:23:55;;;;;;;102.47;41.75;;;;;;;7.71;73.34;101753.28;5107470;28;20403;-27
2022/10/18 00:26:21;;;;;;;93.18;40.15;;;;;;;7.91;72.88;101759.19;5108048;28;20023;-28
2022/10/18 00:28:52;;;;;;;101.97;41.92;;;;;;;7.90;72.81;101750.38;5107722;28;20031;-26
2022/10/18 00:31:27;;;;;;;82.15;41.08;;;;;;;7.81;72.47;101741.53;5089377;28;20506;-27
2022/10/18 00:33:58;;;;;;;70.55;34.10;;;;;;;7.85;72.34;101720.81;5107348;28;20053;-30
2022/10/18 00:36:25;;;;;;;59.53;30.40;;;;;;;7.84;71.90;101716.47;5107433;28;20423;-27
2022/10/18 00:38:51;;;;;;;45.70;27.05;;;;;;;7.95;72.12;101726.81;5088502;28;20039;-27
2022/10/18 00:41:25;;;;;;;107.05;45.53;;;;;;;7.91;72.55;101741.41;5107633;28;20081;-28
2022/10/18 00:43:54;;;;;;;206.50;76.72;;;;;;;7.74;72.95;101735.19;5089061;28;20047;-27
2022/10/18 00:46:19;;;;;;;;;;;;;;;8.03;71.44;101740.13;5108048;28;20034;-27
2022/10/18 00:48:45;;;;;;;148.63;55.72;;;;;;;7.50;73.07;101743.03;5088632;28;19916;-30
2022/10/18 00:51:11;;;;;;;113.97;44.42;;;;;;;7.37;74.04;101756.72;5107264;28;20032;-28
2022/10/18 00:53:38;;;;;;;190.30;71.85;;;;;;;7.55;72.98;101741.56;5072157;28;20024;-31
2022/10/18 00:56:03;;;;;;;127.70;52.05;;;;;;;7.05;74.50;101718.38;5106444;28;20028;-32
2022/10/18 00:58:29;;;;;;;56.58;30.67;;;;;;;7.61;72.40;101738.28;5107394;28;20407;-28
2022/10/18 01:00:55;;;;;;;104.28;42.95;;;;;;;7.50;72.70;101712.03;5106897;28;20055;-28
2022/10/18 01:03:21;;;;;;;167.07;58.20;;;;;;;7.63;72.22;101732.81;5088747;28;20152;-27
2022/10/18 01:05:47;;;;;;;147.63;50.42;;;;;;;7.57;71.98;101728.97;5071856;28;20388;-28
2022/10/18 01:08:40;;;;;;;160.75;51.72;;;;;;;7.54;72.21;101724.00;5107399;28;20023;-30
2022/10/18 01:11:26;;;;;;;115.47;43.15;;;;;;;7.14;74.02;101701.50;5107008;28;20089;-28
2022/10/18 01:13:57;;;;;;;83.28;35.63;;;;;;;7.45;72.50;101723.09;5106838;28;20035;-28
2022/10/18 01:16:42;;;;;;;42.45;19.92;;;;;;;7.45;72.61;101715.13;5088840;28;20028;-28
2022/10/18 01:19:29;;;;;;;72.75;34.20;;;;;;;7.41;72.28;101712.94;5088892;28;20020;-27
2022/10/18 01:22:10;;;;;;;61.47;29.07;;;;;;;7.11;74.09;101706.28;5107151;28;20576;-28
2022/10/18 01:24:44;;;;;;;27.33;14.98;;;;;;;6.72;76.07;101717.28;5088449;28;20118;-27
2022/10/18 01:27:34;;;;;;;21.67;13.45;;;;;;;7.11;74.55;101717.75;5107260;28;20118;-29
2022/10/18 01:30:18;;;;;;;69.18;28.63;;;;;;;7.10;73.87;101726.69;5107129;28;20032;-27
2022/10/18 01:32:49;;;;;;;75.82;31.90;;;;;;;7.10;73.51;101709.94;5106260;28;20048;-31
2022/10/18 01:35:21;;;;;;;155.90;61.28;;;;;;;7.12;72.55;101716.75;5106997;28;20038;-27
2022/10/18 01:37:49;;;;;;;159.35;59.03;;;;;;;6.32;74.46;101705.34;5106423;28;20519;-28
2022/10/18 01:40:18;;;;;;;76.38;34.92;;;;;;;6.46;73.02;101715.41;5107089;28;20027;-28
2022/10/18 01:42:46;;;;;;;87.55;34.65;;;;;;;6.46;72.98;101718.06;5087999;28;20063;-27
2022/10/18 01:45:13;;;;;;;109.82;44.75;;;;;;;6.53;72.68;101720.94;5106921;28;20031;-29
2022/10/18 01:47:41;;;;;;;92.50;40.90;;;;;;;6.50;73.52;101711.47;5107274;28;20036;-27
2022/10/18 01:50:07;;;;;;;80.88;33.47;;;;;;;6.33;73.84;101691.09;5106870;28;20036;-27
2022/10/18 01:52:32;;;;;;;72.03;29.77;;;;;;;6.52;73.21;101698.91;5088257;28;20034;-33
2022/10/18 01:54:59;;;;;;;39.45;21.55;;;;;;;6.53;72.96;101702.38;5088008;28;20055;-28
2022/10/18 01:57:43;;;;;;;27.15;17.42;;;;;;;6.41;73.96;101710.53;5088193;28;20032;-28
2022/10/18 02:00:40;;;;;;;27.40;18.50;;;;;;;6.53;74.86;101718.28;5106943;28;20472;-27
2022/10/18 02:03:19;;;;;;;29.95;17.83;;;;;;;6.40;75.78;101718.66;5101682;28;20036;-29
2022/10/18 02:06:16;;;;;;;29.67;17.08;;;;;;;6.10;77.00;101722.47;5088488;28;20067;-28
2022/10/18 02:08:50;;;;;;;25.23;15.50;;;;;;;6.41;75.36;101721.13;5092049;28;20110;-27
2022/10/18 02:11:17;;;;;;;28.85;17.52;;;;;;;6.38;74.97;101692.31;5110573;28;20093;-28
2022/10/18 02:13:47;;;;;;;30.05;16.90;;;;;;;6.73;74.90;101709.19;5110429;28;20027;-27
2022/10/18 02:16:20;;;;;;;32.90;17.63;;;;;;;6.54;74.84;101710.19;5110447;28;20088;-27
2022/10/18 02:18:59;;;;;;;29.13;17.08;;;;;;;6.59;74.99;101707.91;5110288;28;20043;-28
2022/10/18 02:21:27;;;;;;;26.85;15.43;;;;;;;6.61;74.61;101694.50;5091781;28;20038;-30
2022/10/18 02:23:54;;;;;;;28.65;16.38;;;;;;;6.68;74.56;101710.63;5110308;28;20103;-29
2022/10/18 02:26:20;;;;;;;30.02;16.50;;;;;;;6.61;74.88;101705.09;5091359;28;20039;-28
2022/10/18 02:28:46;;;;;;;29.95;17.02;;;;;;;6.74;73.37;101686.13;5109730;28;20028;-30
2022/10/18 02:31:48;;;;;;;29.13;16.45;;;;;;;6.73;73.35;101706.53;5091434;28;20049;-28
2022/10/18 02:34:32;;;;;;;30.33;17.73;;;;;;;6.22;74.62;101674.44;5059421;28;20042;-27
2022/10/18 02:37:00;;;;;;;32.13;17.70;;;;;;;6.38;74.58;101710.03;5109658;28;20197;-28
2022/10/18 02:39:46;;;;;;;33.08;17.30;;;;;;;6.48;74.23;101705.50;5109906;28;20135;-27
2022/10/18 02:42:13;;;;;;;35.00;19.42;;;;;;;6.19;74.93;101689.78;5109932;28;20084;-26
2022/10/18 02:44:39;;;;;;;41.35;21.17;;;;;;;6.52;73.88;101698.03;5109886;28;20115;-27
2022/10/18 02:47:06;;;;;;;93.05;37.58;;;;;;;6.60;73.28;101719.34;5109613;28;20111;-27
2022/10/18 02:49:32;;;;;;;82.53;34.38;;;;;;;6.33;73.25;101691.91;5109615;28;20031;-27
2022/10/18 02:51:57;;;;;;;100.47;37.40;;;;;;;5.80;75.90;101695.28;5091208;28;20039;-27
2022/10/18 02:54:23;;;;;;;87.72;36.17;;;;;;;5.84;74.77;101688.72;5091314;28;20028;-27
2022/10/18 02:56:49;;;;;;;63.53;26.38;;;;;;;5.77;75.25;101711.47;5109253;28;20559;-28
2022/10/18 02:59:14;;;;;;;83.90;35.03;;;;;;;5.73;74.66;101694.22;5109470;28;20039;-27
2022/10/18 03:01:39;;;;;;;100.70;36.33;;;;;;;5.52;76.73;101689.19;5109137;28;20023;-25
2022/10/18 03:04:05;;;;;;;94.13;35.90;;;;;;;5.88;74.49;101708.63;5109145;28;20035;-27
2022/10/18 03:06:31;;;;;;;95.70;39.50;;;;;;;6.30;73.69;101712.59;5090634;28;20047;-27
2022/10/18 03:08:56;;;;;;;106.32;41.28;;;;;;;6.08;74.43;101722.63;5108821;28;20039;-27
2022/10/18 03:11:22;;;;;;;110.70;40.20;;;;;;;6.03;75.50;101716.94;5109076;28;20024;-28
2022/10/18 03:13:49;;;;;;;75.43;30.70;;;;;;;6.28;75.24;101715.41;5109284;28;20741;-27
2022/10/18 03:16:15;;;;;;;61.55;27.13;;;;;;;6.33;75.38;101718.41;5090554;28;20546;-27
2022/10/18 03:18:41;;;;;;;119.25;49.50;;;;;;;6.43;74.97;101728.94;5107595;28;20023;-26
2022/10/18 03:21:07;;;;;;;142.77;55.40;;;;;;;5.99;76.28;101716.41;5090458;28;20064;-26
2022/10/18 03:23:33;;;;;;;60.28;27.38;;;;;;;5.69;75.03;101692.84;5109244;28;20024;-29
2022/10/18 03:25:58;;;;;;;61.88;28.00;;;;;;;6.00;74.35;101718.06;5109488;28;20411;-28
2022/10/18 03:28:24;;;;;;;108.93;43.33;;;;;;;6.19;73.86;101713.63;5108924;28;20028;-27
2022/10/18 03:30:49;;;;;;;55.20;25.80;;;;;;;5.83;74.18;101708.25;5108611;28;20034;-27
2022/10/18 03:33:15;;;;;;;60.13;28.25;;;;;;;5.97;73.62;101723.66;5108241;28;20059;-27
2022/10/18 03:35:41;;;;;;;114.25;46.22;;;;;;;6.04;73.67;101706.19;5107900;28;20039;-27
2022/10/18 03:38:06;;;;;;;140.45;50.97;;;;;;;6.03;73.67;101703.72;5108611;28;20062;-27
2022/10/18 03:40:32;;;;;;;121.65;46.60;;;;;;;5.86;74.52;101721.16;5108575;28;20111;-28
2022/10/18 03:42:57;;;;;;;114.95;45.63;;;;;;;5.31;75.77;101721.97;5089794;28;20042;-29
2022/10/18 03:45:24;;;;;;;126.10;46.88;;;;;;;5.49;75.44;101714.09;5107354;28;20023;-28
2022/10/18 03:47:49;;;;;;;116.50;46.03;;;;;;;5.79;74.76;101736.81;5108337;28;20056;-28
2022/10/18 03:50:15;;;;;;;139.20;55.47;;;;;;;5.94;74.46;101723.91;5108368;28;20582;-28
2022/10/18 03:52:40;;;;;;;153.35;59.10;;;;;;;5.99;75.01;101729.66;5107944;28;20028;-27
2022/10/18 03:55:06;;;;;;;214.65;81.15;;;;;;;5.77;75.06;101691.13;5108095;28;20033;-29
2022/10/18 03:57:32;;;;;;;216.00;78.10;;;;;;;5.97;74.72;101726.31;5108072;28;20035;-26
2022/10/18 03:59:57;;;;;;;205.52;80.50;;;;;;;5.82;75.81;101731.25;5089534;28;20027;-27
2022/10/18 04:02:23;;;;;;;219.77;82.43;;;;;;;5.67;75.43;101729.22;5089386;28;20035;-29
2022/10/18 04:04:48;;;;;;;214.20;79.32;;;;;;;5.49;76.31;101714.09;5107576;28;20030;-27
2022/10/18 04:07:14;;;;;;;186.45;76.88;;;;;;;5.54;74.99;101709.22;5107818;28;20019;-29
2022/10/18 04:09:40;;;;;;;219.43;84.00;;;;;;;5.59;74.58;101709.59;5108048;28;20035;-26
2022/10/18 04:12:05;;;;;;;229.68;87.07;;;;;;;5.56;74.65;101707.25;5107964;28;20430;-26
2022/10/18 04:14:31;;;;;;;202.43;78.13;;;;;;;5.75;74.82;101718.72;5108245;28;20480;-27
2022/10/18 04:16:56;;;;;;;213.05;77.32;;;;;;;5.33;75.56;101703.28;5107715;28;20040;-27
2022/10/18 04:19:21;;;;;;;165.45;63.40;;;;;;;4.90;77.14;101700.19;5089003;28;20024;-26
2022/10/18 04:21:47;;;;;;;195.77;76.07;;;;;;;5.30;75.83;101703.59;5089441;28;20035;-27
2022/10/18 04:24:12;;;;;;;190.00;72.03;;;;;;;5.33;75.78;101713.88;5107701;28;20027;-27
2022/10/18 04:26:38;;;;;;;165.98;67.78;;;;;;;5.56;75.00;101720.47;5107152;28;20042;-30
2022/10/18 04:29:03;;;;;;;162.93;63.45;;;;;;;4.94;76.16;101713.94;5088925;28;20031;-27
2022/10/18 04:31:28;;;;;;;169.00;67.90;;;;;;;4.88;75.97;101715.34;5107325;28;20031;-27
2022/10/18 04:33:54;;;;;;;93.32;41.30;;;;;;;5.23;74.74;101737.69;5089002;28;20047;-27
2022/10/18 04:36:19;;;;;;;82.80;35.58;;;;;;;5.07;73.66;101733.00;5107255;28;20038;-28
2022/10/18 04:38:45;;;;;;;111.82;42.83;;;;;;;5.30;73.68;101730.03;5107091;28;20051;-28
2022/10/18 04:41:10;;;;;;;83.65;39.05;;;;;;;5.51;73.98;101733.31;5107254;28;20096;-27
2022/10/18 04:43:36;;;;;;;84.00;37.00;;;;;;;5.58;74.54;101739.69;5107623;28;20031;-28
2022/10/18 04:46:01;;;;;;;52.80;29.10;;;;;;;5.54;74.13;101737.50;5107138;28;20030;-27
2022/10/18 04:48:27;;;;;;;54.67;24.95;;;;;;;5.47;76.26;101731.91;5088683;28;20114;-28
2022/10/18 04:50:52;;;;;;;32.38;20.05;;;;;;;5.68;76.14;101728.22;5106969;28;20028;-29
2022/10/18 04:53:18;;;;;;;38.05;20.35;;;;;;;5.31;76.47;101714.03;5107364;28;20031;-26
2022/10/18 04:55:46;;;;;;;48.00;24.55;;;;;;;5.39;77.30;101721.22;5089005;28;20038;-27
2022/10/18 04:58:12;;;;;;;37.22;20.00;;;;;;;5.30;77.40;101719.47;5107141;28;20035;-31
2022/10/18 05:00:38;;;;;;;38.85;22.35;;;;;;;5.77;76.11;101737.94;5106811;28;20027;-26
2022/10/18 05:03:03;;;;;;;35.38;19.92;;;;;;;5.60;76.18;101700.69;5088644;28;20123;-28
2022/10/18 05:05:29;;;;;;;34.38;18.83;;;;;;;5.96;76.22;101723.81;5107187;28;20027;-26
2022/10/18 05:07:54;;;;;;;33.42;18.67;;;;;;;5.98;75.68;101717.38;5107150;28;20027;-27
2022/10/18 05:10:19;;;;;;;29.00;19.55;;;;;;;5.76;76.40;101707.16;5106987;28;20438;-28
2022/10/18 05:12:45;;;;;;;32.08;19.60;;;;;;;5.99;76.27;101737.59;5106812;28;20743;-28
2022/10/18 05:15:10;;;;;;;34.05;21.05;;;;;;;6.10;76.36;101727.78;5106639;28;20020;-27
2022/10/18 05:17:36;;;;;;;30.25;17.40;;;;;;;6.27;75.44;101740.19;5088253;28;20108;-29
2022/10/18 05:20:02;;;;;;;31.45;17.35;;;;;;;5.81;76.43;101712.84;5106769;28;20038;-28
2022/10/18 05:22:27;;;;;;;29.73;18.55;;;;;;;6.00;76.73;101727.81;5106975;28;20498;-27
2022/10/18 05:24:52;;;;;;;30.00;19.23;;;;;;;6.12;75.90;101733.75;5106666;28;20886;-27
2022/10/18 05:27:18;;;;;;;37.58;22.48;;;;;;;6.03;75.84;101733.66;5106751;28;20043;-27
2022/10/18 05:29:43;;;;;;;37.80;22.27;;;;;;;5.78;76.80;101734.31;5106542;28;20027;-27
2022/10/18 05:32:09;;;;;;;28.23;18.30;;;;;;;5.96;76.68;101732.56;5106750;28;20036;-30
2022/10/18 05:34:34;;;;;;;28.90;18.02;;;;;;;5.96;76.47;101737.06;5106666;28;20028;-28
2022/10/18 05:36:59;;;;;;;27.00;17.85;;;;;;;6.38;75.72;101737.34;5107036;28;20407;-28
2022/10/18 05:39:25;;;;;;;27.52;17.48;;;;;;;6.57;75.22;101741.66;5106968;28;20055;-28
2022/10/18 05:41:50;;;;;;;30.35;17.10;;;;;;;6.69;78.15;101744.94;5089753;28;20402;-28
2022/10/18 05:44:16;;;;;;;29.02;17.42;;;;;;;6.66;80.23;101718.75;5110772;28;20498;-30
2022/10/18 05:46:41;;;;;;;30.42;18.95;;;;;;;6.66;77.32;101739.94;5091805;28;20027;-28
2022/10/18 05:49:08;;;;;;;31.05;17.13;;;;;;;6.73;80.76;101727.75;5110832;28;20036;-26
2022/10/18 05:51:33;;;;;;;23.50;15.65;;;;;;;7.04;78.48;101732.63;5110672;28;20030;-29
2022/10/18 05:53:59;;;;;;;249.25;104.60;;;;;;;7.24;75.85;101738.56;5110351;28;20024;-27
2022/10/18 05:56:25;;;;;;;200.98;86.47;;;;;;;7.42;74.82;101736.69;5110422;28;20028;-30
2022/10/18 05:58:51;;;;;;;203.00;87.63;;;;;;;7.34;76.97;101734.00;5109840;28;20419;-29
2022/10/18 06:01:16;;;;;;;127.75;52.42;;;;;;;7.46;73.73;101721.28;5091776;28;20070;-29
2022/10/18 06:03:42;;;;;;;40.10;21.77;;;;;;;7.50;73.66;101730.59;5091996;28;20779;-27
2022/10/18 06:06:10;;;;;;;47.83;23.48;;;;;;;7.61;73.56;101725.00;5110551;28;20107;-27
2022/10/18 06:08:36;;;;;;;145.80;60.00;;;;;;;7.88;73.45;101739.06;5109986;28;20111;-27
2022/10/18 06:11:14;;;;;;;102.10;49.90;;;;;;;7.88;73.55;101715.16;5091449;28;20020;-30
2022/10/18 06:13:41;;;;;;;;;;;;;;;8.15;74.37;101739.81;5109889;28;20027;-26
2022/10/18 06:16:06;;;;;;;48.90;25.15;;;;;;;8.22;72.93;101738.19;5110064;28;20030;-26
2022/10/18 06:18:32;;;;;;;36.42;18.42;;;;;;;8.19;73.42;101714.59;5110219;28;20110;-29
2022/10/18 06:20:58;;;;;;;30.73;16.83;;;;;;;8.38;74.87;101716.13;5091412;28;20035;-27
2022/10/18 06:23:25;;;;;;;18.92;13.68;;;;;;;8.57;73.12;101725.66;5110522;28;20036;-28
2022/10/18 06:25:51;;;;;;;20.55;13.13;;;;;;;8.80;71.85;101737.28;5091347;28;20039;-29
2022/10/18 06:28:17;;;;;;;23.75;15.90;;;;;;;8.81;70.93;101728.31;5109945;28;20104;-28
2022/10/18 06:30:43;;;;;;;30.92;19.58;;;;;;;8.93;70.86;101735.97;5109646;28;20038;-28
2022/10/18 06:33:10;;;;;;;69.72;32.80;;;;;;;8.64;72.07;101716.00;5109840;28;20024;-29
2022/10/18 06:35:36;;;;;;;43.65;23.33;;;;;;;8.78;72.13;101723.31;5109721;28;20155;-28
2022/10/18 06:38:02;;;;;;;56.33;27.20;;;;;;;9.07;71.15;101721.97;5109530;28;20628;-29
2022/10/18 06:40:29;;;;;;;66.88;31.88;;;;;;;9.48;69.85;101740.56;5109495;28;20024;-27
2022/10/18 06:42:55;;;;;;;35.40;18.10;;;;;;;9.74;67.99;101742.13;5109223;28;20031;-27
2022/10/18 06:45:20;;;;;;;22.73;13.75;;;;;;;9.93;65.77;101740.88;5091284;28;20388;-30
2022/10/18 06:47:46;;;;;;;20.00;12.10;;;;;;;9.90;67.74;101728.75;5090954;28;20032;-30
2022/10/18 06:50:11;;;;;;;22.30;12.45;;;;;;;10.04;65.84;101729.84;5109474;28;20035;-28
2022/10/18 06:52:37;;;;;;;17.30;10.00;;;;;;;10.29;64.74;101722.53;5108228;28;20032;-29
2022/10/18 06:55:03;;;;;;;17.02;10.85;;;;;;;10.33;63.97;101734.53;5108852;28;20401;-28
2022/10/18 06:57:28;;;;;;;19.23;10.70;;;;;;;10.58;67.19;101734.38;5109062;28;20028;-27
2022/10/18 06:59:54;;;;;;;15.55;9.63;;;;;;;10.57;63.01;101717.53;5109168;28;20032;-28
2022/10/18 07:02:19;;;;;;;17.23;10.20;;;;;;;10.74;62.57;101733.44;5109291;28;20027;-27
2022/10/18 07:04:45;;;;;;;17.30;10.55;;;;;;;10.53;63.09;101734.09;5109025;28;20440;-28
2022/10/18 07:07:10;;;;;;;18.30;9.85;;;;;;;10.81;62.20;101737.88;5109252;28;20027;-28
2022/10/18 07:09:35;;;;;;;14.30;9.77;;;;;;;11.04;62.50;101727.16;5108854;28;20027;-27
2022/10/18 07:12:01;;;;;;;13.63;8.95;;;;;;;11.21;61.14;101722.47;5090539;28;20536;-27
2022/10/18 07:14:26;;;;;;;17.25;9.18;;;;;;;11.26;60.20;101708.59;5108772;28;20028;-29
2022/10/18 07:16:52;;;;;;;16.23;9.75;;;;;;;11.45;61.04;101709.91;5109119;28;20084;-29
2022/10/18 07:19:17;;;;;;;16.90;9.35;;;;;;;11.73;61.04;101710.06;5108861;28;20059;-28
2022/10/18 07:21:42;;;;;;;15.18;8.70;;;;;;;11.91;58.97;101695.50;5108978;28;20480;-28
2022/10/18 07:24:08;;;;;;;15.45;8.48;;;;;;;11.91;58.72;101695.50;5090399;28;20024;-26
2022/10/18 07:26:34;;;;;;;12.88;8.50;;;;;;;12.13;58.92;101715.91;5108369;28;20032;-33
2022/10/18 07:29:03;;;;;;;12.98;7.80;;;;;;;12.32;57.57;101714.50;5108618;28;20035;-29
2022/10/18 07:31:29;;;;;;;14.07;7.90;;;;;;;12.46;57.22;101708.25;5108633;28;20038;-28
2022/10/18 07:33:55;;;;;;;13.23;8.30;;;;;;;12.75;57.24;101705.59;5108697;28;20165;-29
2022/10/18 07:36:21;;;;;;;12.00;7.88;;;;;;;12.71;57.24;101701.66;5108651;28;20111;-26
2022/10/18 07:38:47;;;;;;;12.25;8.52;;;;;;;12.75;58.16;101703.78;5108331;28;20054;-28
2022/10/18 07:41:13;;;;;;;12.90;7.88;;;;;;;12.69;58.21;101683.13;5108301;28;20088;-27
2022/10/18 07:43:47;;;;;;;22.90;9.77;;;;;;;12.91;57.55;101686.56;5108655;28;20032;-28
2022/10/18 07:46:13;;;;;;;11.13;7.60;;;;;;;13.21;57.12;101692.56;5108290;28;20032;-27
2022/10/18 07:48:39;;;;;;;13.68;7.22;;;;;;;13.27;56.81;101669.53;5108252;28;20096;-29
2022/10/18 07:51:05;;;;;;;14.73;8.18;;;;;;;13.53;56.81;101687.63;5089844;28;20104;-31
2022/10/18 07:53:31;;;;;;;13.13;7.65;;;;;;;13.42;56.96;101659.56;5108036;28;20032;-29
2022/10/18 07:56:00;;;;;;;13.35;8.32;;;;;;;13.85;56.01;101680.75;5108040;28;20106;-26
2022/10/18 07:58:26;;;;;;;14.15;7.07;;;;;;;13.90;56.00;101682.00;5089279;28;20062;-29
2022/10/18 08:00:51;;;;;;;13.30;8.65;;;;;;;13.81;55.39;101675.97;5107816;28;20059;-28
2022/10/18 08:03:17;;;;;;;14.85;8.77;;;;;;;13.97;55.98;101675.63;5108190;28;20031;-26
2022/10/18 08:05:42;;;;;;;13.43;7.75;;;;;;;14.16;55.74;101678.56;5107441;28;20487;-28
2022/10/18 08:08:08;;;;;;;14.15;7.70;;;;;;;14.32;55.14;101651.34;5089040;28;20040;-28
2022/10/18 08:10:34;;;;;;;11.13;7.47;;;;;;;14.30;54.89;101642.66;5107445;28;20032;-32
2022/10/18 08:12:59;;;;;;;14.13;7.60;;;;;;;14.58;55.20;101672.03;5089249;28;20035;-27
2022/10/18 08:15:25;;;;;;;14.40;7.30;;;;;;;14.84;54.35;101671.22;5089474;28;20030;-31
2022/10/18 08:17:51;;;;;;;13.68;7.93;;;;;;;14.59;54.16;101651.41;5107850;28;20031;-29
2022/10/18 08:20:16;;;;;;;11.35;7.00;;;;;;;14.88;55.21;101670.81;5107634;28;20028;-29
2022/10/18 08:22:42;;;;;;;16.52;7.57;;;;;;;14.97;55.20;101661.50;5107452;28;20051;-28
2022/10/18 08:25:07;;;;;;;10.55;6.90;;;;;;;15.13;54.45;101647.63;5088876;28;20055;-27
2022/10/18 08:27:33;;;;;;;12.27;7.68;;;;;;;15.22;55.52;101657.13;5089302;28;20020;-30
2022/10/18 08:30:01;;;;;;;13.02;7.32;;;;;;;15.30;53.70;101647.16;5107699;28;20035;-29
2022/10/18 08:32:27;;;;;;;;;;;;;;;15.54;53.54;101646.44;5089590;28;20027;-30
2022/10/18 08:34:53;;;;;;;11.05;7.53;;;;;;;15.17;53.54;101605.84;5107211;28;19915;-28
2022/10/18 08:37:18;;;;;;;14.20;8.27;;;;;;;15.66;53.65;101625.91;5107675;28;20038;-29
2022/10/18 08:39:43;;;;;;;16.38;7.43;;;;;;;16.01;53.38;101603.19;5071686;28;20048;-27
2022/10/18 08:42:32;;;;;;;12.63;7.22;;;;;;;16.51;52.51;101624.78;5107297;28;20544;-27
2022/10/18 08:44:58;;;;;;;12.82;6.60;;;;;;;16.67;52.37;101620.69;5107036;28;20020;-30
2022/10/18 08:47:40;;;;;;;13.38;7.30;;;;;;;16.74;52.61;101602.59;5107276;28;20031;-29
2022/10/18 08:50:13;;;;;;;10.40;6.75;;;;;;;17.09;53.20;101617.41;5106700;28;20535;-28
2022/10/18 08:53:00;;;;;;;14.98;8.90;;;;;;;17.13;52.19;101610.53;5107055;28;20024;-30
2022/10/18 08:55:35;;;;;;;13.88;8.95;;;;;;;17.13;51.32;101605.94;5106907;28;20110;-30
2022/10/18 08:58:02;;;;;;;14.07;8.45;;;;;;;17.21;50.36;101594.88;5107103;28;20488;-28
2022/10/18 09:00:33;;;;;;;11.52;7.10;;;;;;;17.34;49.39;101593.06;5106834;28;20426;-29
2022/10/18 09:03:44;;;;;;;15.70;7.75;;;;;;;17.65;50.56;101590.16;5107102;28;20368;-30
2022/10/18 09:06:28;;;;;;;48.95;23.85;;;;;;;18.09;48.88;101591.84;5088409;28;20088;-28
2022/10/18 09:09:15;;;;;;;12.90;8.02;;;;;;;18.35;48.33;101586.03;5106725;28;20036;-28
2022/10/18 09:11:49;;;;;;;12.52;7.22;;;;;;;18.07;48.18;101582.09;5107001;28;20547;-29
2022/10/18 09:14:46;;;;;;;13.25;7.18;;;;;;;18.62;47.82;101583.66;5106718;28;20028;-28
2022/10/18 09:17:15;;;;;;;12.15;6.93;;;;;;;18.63;46.96;101577.22;5087452;28;20038;-31
2022/10/18 09:20:08;;;;;;;14.35;7.90;;;;;;;18.55;47.80;101550.56;5106965;28;20020;-29
2022/10/18 09:23:01;;;;;;;10.18;6.53;;;;;;;18.72;46.72;101571.47;5106637;28;20157;-32
2022/10/18 09:25:36;;;;;;;8.93;5.40;;;;;;;18.48;47.00;101560.66;5106676;28;20039;-29
2022/10/18 09:28:26;;;;;;;9.40;4.80;;;;;;;18.61;46.68;101563.13;5106934;28;20067;-29
2022/10/18 09:30:57;;;;;;;8.73;4.85;;;;;;;18.56;47.21;101562.19;5106375;28;20091;-29
2022/10/18 09:33:25;;;;;;;7.53;4.90;;;;;;;18.34;47.82;101553.84;5106904;28;20036;-28
2022/10/18 09:36:04;;;;;;;8.60;4.90;;;;;;;18.64;47.41;101548.31;5106822;28;20099;-28
2022/10/18 09:38:41;;;;;;;8.88;4.90;;;;;;;18.98;46.58;101543.94;5106420;28;20540;-28
2022/10/18 09:41:18;;;;;;;8.70;5.03;;;;;;;19.45;46.66;101516.72;5106480;28;20072;-29
2022/10/18 09:43:53;;;;;;;9.40;5.40;;;;;;;19.77;44.22;101537.06;5106602;28;20070;-29
2022/10/18 09:46:21;;;;;;;10.02;4.90;;;;;;;19.42;43.75;101510.97;5087952;28;20112;-31
2022/10/18 09:49:00;;;;;;;12.02;5.43;;;;;;;19.31;44.63;101522.66;5106457;28;20084;-29
2022/10/18 09:51:32;;;;;;;8.88;5.20;;;;;;;19.34;44.14;101524.91;5106757;28;20096;-28
2022/10/18 09:54:29;;;;;;;11.48;5.65;;;;;;;19.33;43.34;101517.81;5106572;28;20020;-29
2022/10/18 09:57:11;;;;;;;9.10;5.70;;;;;;;19.50;43.02;101512.47;5106153;28;20035;-34
2022/10/18 09:59:41;;;;;;;11.80;5.80;;;;;;;19.64;42.92;101517.34;5106304;28;20121;-31
2022/10/18 10:02:12;;;;;;;8.02;5.00;;;;;;;19.54;41.99;101481.97;5088053;28;20039;-29
2022/10/18 10:04:37;;;;;;;7.55;4.53;;;;;;;19.91;42.09;101478.00;5087526;28;20529;-28
2022/10/18 10:07:07;;;;;;;7.57;4.93;;;;;;;20.40;42.11;101476.28;5106335;28;20110;-29
2022/10/18 10:09:56;;;;;;;9.93;5.32;;;;;;;20.92;40.44;101485.91;5106353;28;20024;-28
2022/10/18 10:12:35;;;;;;;8.15;4.45;;;;;;;20.75;40.64;101475.16;5100065;28;20032;-30
2022/10/18 10:15:19;;;;;;;9.77;4.80;;;;;;;20.41;40.18;101453.56;5106364;28;20028;-27
2022/10/18 10:17:57;;;;;;;10.98;5.07;;;;;;;20.72;41.30;101445.84;5106046;28;20062;-29
2022/10/18 10:20:35;;;;;;;6.97;4.15;;;;;;;20.56;41.28;101444.81;5106332;28;20468;-29
2022/10/18 10:23:15;;;;;;;11.05;4.88;;;;;;;21.07;39.32;101439.19;5106179;28;20403;-31
2022/10/18 10:25:41;;;;;;;10.63;3.90;;;;;;;21.19;38.26;101441.75;5106310;28;20035;-27
2022/10/18 10:28:15;;;;;;;8.00;4.00;;;;;;;21.05;38.01;101414.19;5089299;28;20517;-27
2022/10/18 10:30:40;;;;;;;15.00;4.15;;;;;;;21.52;36.88;101413.56;5109800;28;20167;-29
2022/10/18 10:33:37;;;;;;;9.13;4.35;;;;;;;21.83;34.62;101424.66;5110138;28;20866;-31
2022/10/18 10:36:14;;;;;;;9.35;3.47;;;;;;;21.70;35.07;101417.78;5091344;28;20034;-31
2022/10/18 10:38:40;;;;;;;7.30;3.85;;;;;;;22.28;34.81;101423.31;5109732;28;20453;-29
2022/10/18 10:41:19;;;;;;;6.50;3.50;;;;;;;22.36;33.16;101416.56;5109706;28;20100;-29
2022/10/18 10:43:44;;;;;;;5.50;2.97;;;;;;;21.95;32.93;101392.69;5109827;28;20027;-28
2022/10/18 10:46:17;;;;;;;6.38;3.55;;;;;;;22.42;32.74;101405.44;5109563;28;20076;-29
2022/10/18 10:48:58;;;;;;;8.00;3.70;;;;;;;22.34;33.43;101386.94;5090819;28;20038;-28
2022/10/18 10:51:37;;;;;;;9.48;3.25;;;;;;;22.82;31.61;101390.34;5109456;28;20028;-29
2022/10/18 10:54:16;;;;;;;10.02;3.75;;;;;;;22.20;32.79;101358.59;5109396;28;20031;-29
2022/10/18 10:57:11;;;;;;;11.35;4.70;;;;;;;21.99;33.13;101372.06;5109020;28;20058;-27
2022/10/18 10:59:48;;;;;;;7.57;3.80;;;;;;;21.87;31.67;101350.53;5075626;28;20130;-27
2022/10/18 11:02:14;;;;;;;8.13;3.65;;;;;;;22.14;32.99;101365.06;5107849;28;20035;-30
2022/10/18 11:04:41;;;;;;;13.45;3.90;;;;;;;22.41;32.62;101346.75;5108943;28;20031;-29
2022/10/18 11:07:43;;;;;;;8.35;3.97;;;;;;;22.34;31.56;101353.50;5109619;28;20035;-28
2022/10/18 11:10:08;;;;;;;7.40;2.92;;;;;;;22.22;33.23;101342.81;5109209;28;20483;-29
2022/10/18 11:12:44;;;;;;;6.43;3.40;;;;;;;22.21;32.89;101339.31;5108879;28;20073;-32
2022/10/18 11:15:15;;;;;;;10.95;3.35;;;;;;;22.46;32.05;101341.31;5108950;28;20032;-28
2022/10/18 11:17:41;;;;;;;9.07;3.22;;;;;;;22.54;32.55;101336.44;5090618;28;20019;-29
2022/10/18 11:20:08;;;;;;;6.72;2.90;;;;;;;22.53;32.23;101326.66;5108907;28;20045;-28
2022/10/18 11:22:57;;;;;;;6.38;2.92;;;;;;;22.91;30.54;101317.19;5108860;28;20051;-31
2022/10/18 11:25:26;;;;;;;8.25;3.30;;;;;;;22.69;32.00;101312.00;5101862;28;20044;-28
2022/10/18 11:28:24;;;;;;;4.65;2.47;;;;;;;22.43;30.56;101309.25;5108976;28;20024;-29
2022/10/18 11:31:10;;;;;;;6.30;2.95;;;;;;;22.74;30.23;101303.88;5099951;28;20062;-31